createdAt,value
2022-08-22T00:08:46.818Z,24.22
2022-08-22T00:28:46.752Z,24.22
2022-08-22T00:48:46.216Z,24.22
2022-08-22T01:08:46.711Z,24.22
2022-08-22T01:28:46.674Z,24.22
2022-08-22T01:48:47.694Z,24.22
2022-08-22T02:08:46.631Z,24.23
2022-08-22T02:28:56.835Z,24.23
2022-08-22T02:48:46.073Z,24.23
2022-08-22T03:08:47.339Z,24.23
2022-08-22T03:28:52.780Z,24.23
2022-08-22T03:48:46.536Z,24.23
2022-08-22T04:08:46.485Z,24.24
2022-08-22T04:28:45.942Z,24.24
2022-08-22T04:48:46.442Z,24.24
2022-08-22T05:08:45.649Z,24.24
2022-08-22T05:28:48.323Z,24.24
2022-08-22T05:48:45.858Z,24.24
2022-08-22T06:08:46.339Z,24.25
2022-08-22T06:28:46.699Z,24.24
2022-08-22T06:48:46.291Z,24.25
2022-08-22T07:08:45.738Z,24.25
2022-08-22T07:28:50.764Z,24.25
2022-08-22T07:49:06.127Z,24.25
2022-08-22T08:08:46.169Z,24.25
2022-08-22T08:28:46.136Z,24.25
2022-08-22T08:48:45.580Z,24.25
2022-08-22T09:08:46.075Z,24.26
2022-08-22T09:28:46.030Z,24.25
2022-08-22T09:48:45.989Z,24.25
2022-08-22T10:08:46.169Z,24.25
2022-08-22T10:28:45.942Z,24.25
2022-08-22T10:48:45.378Z,24.26
2022-08-22T11:08:45.878Z,24.25
2022-08-22T11:28:45.853Z,24.25
2022-08-22T11:48:47.838Z,24.24
2022-08-22T12:08:45.825Z,24.24
2022-08-22T12:28:45.797Z,24.23
2022-08-22T12:48:45.762Z,24.22
2022-08-22T13:08:45.743Z,24.22
2022-08-22T13:28:45.699Z,24.21
2022-08-22T13:48:46.687Z,24.21
2022-08-22T14:08:45.746Z,24.2
2022-08-22T14:28:45.610Z,24.19
2022-08-22T14:48:45.965Z,24.19
2022-08-22T15:08:46.345Z,24.18
2022-08-22T15:28:52.432Z,24.18
2022-08-22T15:48:49.231Z,24.18
2022-08-22T16:08:45.470Z,24.17
2022-08-22T16:28:57.702Z,24.17
2022-08-22T16:48:45.380Z,24.17
2022-08-22T17:08:45.359Z,24.17
2022-08-22T17:28:45.324Z,24.18
2022-08-22T18:09:13.532Z,24.18
2022-08-22T18:28:45.217Z,24.18
2022-08-22T18:48:59.722Z,24.18
2022-08-22T19:08:45.153Z,24.18
2022-08-22T19:28:45.120Z,24.18
2022-08-22T19:48:45.110Z,24.18
2022-08-22T20:08:45.064Z,24.19
2022-08-22T20:28:45.032Z,24.19
2022-08-22T20:48:45.004Z,24.19
2022-08-22T21:08:44.963Z,24.19
2022-08-22T21:28:44.944Z,24.2
2022-08-22T22:08:44.350Z,24.2
2022-08-22T22:28:44.849Z,24.2
2022-08-22T23:28:44.758Z,24.2
2022-08-22T23:48:44.729Z,24.2
